createdAt,value
2018-05-24T00:01:37.311Z,94.50
2018-05-24T00:04:07.296Z,94.50
2018-05-24T00:06:37.591Z,94.50
2018-05-24T00:09:07.927Z,94.60
2018-05-24T00:11:37.836Z,94.60
2018-05-24T00:14:07.741Z,94.50
2018-05-24T00:16:38.175Z,94.40
2018-05-24T00:19:10.510Z,94.40
2018-05-24T00:21:40.455Z,94.40
2018-05-24T00:24:11.579Z,94.30
2018-05-24T00:26:41.841Z,94.40
2018-05-24T00:29:12.662Z,94.40
2018-05-24T00:31:42.991Z,94.40
2018-05-24T00:34:13.277Z,94.40
2018-05-24T00:36:43.655Z,94.50
2018-05-24T00:39:13.963Z,94.50
2018-05-24T00:41:44.290Z,94.50
2018-05-24T00:44:14.622Z,94.50
2018-05-24T00:46:45.200Z,94.50
2018-05-24T00:49:15.596Z,94.50
2018-05-24T00:51:46.731Z,94.50
2018-05-24T00:54:17.035Z,94.50
2018-05-24T00:56:47.091Z,94.50
2018-05-24T00:59:17.383Z,94.50
2018-05-24T01:01:47.722Z,94.50
2018-05-24T01:04:17.268Z,94.50
2018-05-24T01:06:48.550Z,94.60
2018-05-24T01:09:19.144Z,94.70
2018-05-24T01:11:49.884Z,94.70
2018-05-24T01:14:20.321Z,94.70
2018-05-24T01:16:50.743Z,94.70
2018-05-24T01:19:22.436Z,94.70
2018-05-24T01:21:53.849Z,94.70
2018-05-24T01:24:24.247Z,94.70
2018-05-24T01:26:54.554Z,94.60
2018-05-24T01:29:24.963Z,94.60
2018-05-24T01:31:54.943Z,94.70
2018-05-24T01:34:26.095Z,94.60
2018-05-24T01:38:06.700Z,94.70
2018-05-24T01:40:36.618Z,94.70
2018-05-24T01:43:08.679Z,94.70
2018-05-24T01:45:39.075Z,94.70
2018-05-24T01:48:09.435Z,94.80
2018-05-24T01:50:39.479Z,94.80
2018-05-24T01:53:09.862Z,94.80
2018-05-24T01:55:40.312Z,94.80
2018-05-24T01:58:10.245Z,94.70
2018-05-24T02:00:40.612Z,94.80
2018-05-24T02:03:11.791Z,94.80
2018-05-24T02:05:42.150Z,94.70
2018-05-24T02:08:12.725Z,94.80
2018-05-24T02:10:43.207Z,94.90
2018-05-24T02:13:15.014Z,94.90
2018-05-24T02:15:45.333Z,94.90
2018-05-24T02:18:15.662Z,95.00
2018-05-24T02:20:46.110Z,95.00
2018-05-24T02:23:17.027Z,94.90
2018-05-24T02:25:47.834Z,94.90
2018-05-24T02:28:18.228Z,94.90
2018-05-24T02:30:48.647Z,94.90
2018-05-24T02:33:18.967Z,94.90
2018-05-24T02:35:49.381Z,94.90
2018-05-24T02:38:20.040Z,95.00
2018-05-24T02:40:50.369Z,94.90
2018-05-24T02:43:20.716Z,94.90
2018-05-24T02:45:50.999Z,95.00
2018-05-24T02:48:21.339Z,95.00
2018-05-24T02:50:51.763Z,95.00
2018-05-24T02:53:21.671Z,95.00
2018-05-24T02:55:52.084Z,95.10
2018-05-24T02:58:23.860Z,95.30
2018-05-24T03:00:55.279Z,94.90
2018-05-24T03:03:26.463Z,94.90
2018-05-24T03:05:56.379Z,94.90
2018-05-24T03:08:26.292Z,95.00
2018-05-24T03:10:57.746Z,95.00
2018-05-24T03:13:28.063Z,95.00
2018-05-24T03:15:58.499Z,95.00
2018-05-24T03:18:28.825Z,94.90
2018-05-24T03:20:59.251Z,95.00
2018-05-24T03:23:30.297Z,94.90
2018-05-24T03:26:03.331Z,95.00
2018-05-24T03:28:33.283Z,95.00
2018-05-24T03:31:03.199Z,95.10
2018-05-24T03:33:33.219Z,95.10
2018-05-24T03:36:03.554Z,95.20
2018-05-24T03:38:33.879Z,95.20
2018-05-24T03:41:04.452Z,95.20
2018-05-24T03:43:34.435Z,95.10
2018-05-24T03:46:04.771Z,95.20
2018-05-24T03:48:35.367Z,95.20
2018-05-24T03:51:05.287Z,95.20
2018-05-24T03:53:35.651Z,95.10
2018-05-24T03:56:06.775Z,95.10
2018-05-24T03:58:37.295Z,95.20
2018-05-24T04:04:25.255Z,95.20
2018-05-24T04:06:55.164Z,95.30
2018-05-24T04:09:25.517Z,95.20
2018-05-24T04:11:55.911Z,95.20
2018-05-24T04:14:26.350Z,95.30
2018-05-24T04:16:56.723Z,95.30
2018-05-24T04:19:27.266Z,95.30
2018-05-24T04:21:58.147Z,95.30
2018-05-24T04:24:28.591Z,95.10
2018-05-24T04:26:58.888Z,95.00
2018-05-24T04:29:29.932Z,95.10
2018-05-24T04:32:00.322Z,95.10
2018-05-24T04:34:30.383Z,95.10
2018-05-24T04:37:01.248Z,95.10
2018-05-24T04:39:31.761Z,95.20
2018-05-24T04:42:02.168Z,95.20
2018-05-24T04:44:32.503Z,95.20
2018-05-24T04:47:02.855Z,95.30
2018-05-24T04:49:33.222Z,95.10
2018-05-24T04:52:03.578Z,95.10
2018-05-24T04:54:33.906Z,95.00
2018-05-24T04:57:04.295Z,94.90
2018-05-24T04:59:34.698Z,94.40
2018-05-24T05:02:05.157Z,94.00
2018-05-24T05:04:35.439Z,93.60
2018-05-24T05:07:05.689Z,94.00
2018-05-24T05:09:35.959Z,94.10
2018-05-24T05:12:06.331Z,94.10
2018-05-24T05:14:36.789Z,94.20
2018-05-24T05:17:08.385Z,94.30
2018-05-24T05:19:39.233Z,94.30
2018-05-24T05:22:09.568Z,94.30
2018-05-24T05:24:39.870Z,94.30
2018-05-24T05:27:11.267Z,94.30
2018-05-24T05:29:41.596Z,94.20
2018-05-24T05:32:11.983Z,93.90
2018-05-24T05:34:42.443Z,93.90
2018-05-24T05:37:12.435Z,94.10
2018-05-24T05:39:42.775Z,93.70
2018-05-24T05:42:13.157Z,93.10
2018-05-24T05:44:43.592Z,90.60
2018-05-24T05:47:15.808Z,89.20
2018-05-24T05:49:46.626Z,88.80
2018-05-24T05:52:17.343Z,90.20
2018-05-24T05:54:47.959Z,90.10
2018-05-24T05:57:18.383Z,90.00
2018-05-24T05:59:48.939Z,90.20
2018-05-24T06:02:19.218Z,91.20
2018-05-24T06:05:00.611Z,91.50
2018-05-24T06:07:32.104Z,91.60
2018-05-24T06:10:10.505Z,91.20
2018-05-24T06:12:40.807Z,91.70
2018-05-24T06:15:11.132Z,92.10
2018-05-24T06:17:51.054Z,92.40
2018-05-24T06:20:22.078Z,91.80
2018-05-24T06:22:52.348Z,92.10
2018-05-24T06:25:22.387Z,92.10
2018-05-24T06:27:52.739Z,92.50
2018-05-24T06:30:23.107Z,92.70
2018-05-24T06:32:53.558Z,92.70
2018-05-24T06:35:23.654Z,92.90
2018-05-24T06:37:53.571Z,92.90
2018-05-24T06:40:23.918Z,92.80
2018-05-24T06:42:55.046Z,92.70
2018-05-24T06:45:25.420Z,92.70
2018-05-24T06:47:56.471Z,92.40
2018-05-24T06:50:27.300Z,92.50
2018-05-24T06:52:57.615Z,92.60
2018-05-24T06:55:28.023Z,92.50
2018-05-24T06:57:58.318Z,92.70
2018-05-24T07:00:30.214Z,92.90
2018-05-24T07:03:01.120Z,93.30
2018-05-24T07:05:31.867Z,93.40
2018-05-24T07:08:02.596Z,93.20
2018-05-24T07:10:32.939Z,92.90
2018-05-24T07:13:03.224Z,92.70
2018-05-24T07:15:33.569Z,92.70
2018-05-24T07:18:03.140Z,92.60
2018-05-24T07:20:34.194Z,92.50
2018-05-24T07:23:04.760Z,92.50
2018-05-24T07:25:35.495Z,92.60
2018-05-24T07:28:05.918Z,92.60
2018-05-24T07:30:36.561Z,91.90
2018-05-24T07:33:06.872Z,92.00
2018-05-24T07:35:37.187Z,92.00
2018-05-24T07:38:07.529Z,91.90
2018-05-24T07:40:37.840Z,91.70
2018-05-24T07:43:08.163Z,92.80
2018-05-24T07:45:38.540Z,91.40
2018-05-24T07:48:08.982Z,90.70
2018-05-24T07:50:39.389Z,90.20
2018-05-24T07:53:09.681Z,90.10
2018-05-24T07:55:41.109Z,88.40
2018-05-24T07:58:12.226Z,90.00
2018-05-24T08:00:42.586Z,89.50
2018-05-24T08:03:14.657Z,87.70
2018-05-24T08:05:44.837Z,82.30
2018-05-24T08:08:15.455Z,83.40
2018-05-24T08:10:48.210Z,77.50
2018-05-24T08:13:19.609Z,76.60
2018-05-24T08:15:50.837Z,78.60
2018-05-24T08:18:24.749Z,77.60
2018-05-24T08:20:55.816Z,79.10
2018-05-24T08:23:26.483Z,76.30
2018-05-24T08:25:57.076Z,77.30
2018-05-24T08:28:27.551Z,77.70
2018-05-24T08:30:57.872Z,79.50
2018-05-24T08:33:30.737Z,79.80
2018-05-24T08:36:01.735Z,78.10
2018-05-24T08:38:34.462Z,80.00
2018-05-24T08:41:06.299Z,80.70
2018-05-24T08:43:37.286Z,81.80
2018-05-24T08:46:09.357Z,82.20
2018-05-24T08:48:39.995Z,83.20
2018-05-24T08:51:11.016Z,80.90
2018-05-24T08:53:42.005Z,81.30
2018-05-24T08:56:13.399Z,80.70
2018-05-24T08:58:45.315Z,79.90
2018-05-24T09:01:22.904Z,79.70
2018-05-24T09:03:57.199Z,79.70
2018-05-24T09:06:29.498Z,79.70
2018-05-24T09:09:00.048Z,80.90
2018-05-24T09:11:32.116Z,80.70
2018-05-24T09:14:03.357Z,81.50
2018-05-24T09:16:35.516Z,81.00
2018-05-24T09:19:07.582Z,81.40
2018-05-24T09:21:41.893Z,82.40
2018-05-24T09:24:13.287Z,82.20
2018-05-24T09:26:46.156Z,83.40
2018-05-24T09:29:18.573Z,82.60
2018-05-24T09:31:49.160Z,84.80
2018-05-24T09:34:19.943Z,85.00
2018-05-24T09:36:50.296Z,84.00
2018-05-24T09:39:20.742Z,84.00
2018-05-24T09:41:51.107Z,83.80
2018-05-24T09:44:21.489Z,84.20
2018-05-24T09:46:52.262Z,84.00
2018-05-24T09:49:22.787Z,84.10
2018-05-24T09:51:53.333Z,84.30
2018-05-24T09:54:23.739Z,84.60
2018-05-24T09:56:54.145Z,84.50
2018-05-24T09:59:25.819Z,84.70
2018-05-24T10:01:58.685Z,84.90
2018-05-24T10:04:30.987Z,85.10
2018-05-24T10:07:01.304Z,85.10
2018-05-24T10:09:32.371Z,85.90
2018-05-24T10:12:03.324Z,85.20
2018-05-24T10:14:42.166Z,86.40
2018-05-24T10:17:15.035Z,85.40
2018-05-24T10:19:46.460Z,85.20
2018-05-24T10:22:16.987Z,84.20
2018-05-24T10:24:47.690Z,83.50
2018-05-24T10:27:19.311Z,82.90
2018-05-24T10:29:49.395Z,82.50
2018-05-24T10:32:24.603Z,81.70
2018-05-24T10:35:01.613Z,82.10
2018-05-24T10:37:41.102Z,80.70
2018-05-24T10:40:11.853Z,79.60
2018-05-24T10:42:42.380Z,79.10
2018-05-24T10:45:13.130Z,79.10
2018-05-24T10:47:43.723Z,77.70
2018-05-24T10:50:14.140Z,76.60
2018-05-24T10:52:44.612Z,75.10
2018-05-24T10:55:17.267Z,73.60
2018-05-24T10:57:47.738Z,72.10
2018-05-24T11:00:20.272Z,70.90
2018-05-24T11:02:51.834Z,70.50
2018-05-24T11:05:22.006Z,66.30
2018-05-24T11:07:52.330Z,61.20
2018-05-24T11:10:22.907Z,59.30
2018-05-24T11:12:53.790Z,56.00
2018-05-24T11:15:39.132Z,54.90
2018-05-24T11:18:09.531Z,55.20
2018-05-24T11:20:40.323Z,54.50
2018-05-24T11:23:11.065Z,52.80
2018-05-24T11:25:41.762Z,53.30
2018-05-24T11:28:14.140Z,55.70
2018-05-24T11:30:45.783Z,56.50
2018-05-24T11:33:24.415Z,57.10
2018-05-24T11:35:56.221Z,58.30
2018-05-24T11:38:26.807Z,58.90
2018-05-24T11:40:57.160Z,58.20
2018-05-24T11:43:28.554Z,59.70
2018-05-24T11:45:58.537Z,59.60
2018-05-24T11:48:32.203Z,59.40
2018-05-24T11:51:03.301Z,59.30
2018-05-24T11:53:33.703Z,59.70
2018-05-24T11:56:04.135Z,61.10
2018-05-24T11:58:34.571Z,61.50
2018-05-24T12:08:04.846Z,63.80
2018-05-24T12:10:35.503Z,63.40
2018-05-24T12:13:05.973Z,63.40
2018-05-24T12:15:36.486Z,63.10
2018-05-24T12:18:06.837Z,63.20
2018-05-24T12:20:37.278Z,63.50
2018-05-24T12:23:07.876Z,63.70
2018-05-24T12:25:42.038Z,64.30
2018-05-24T12:28:12.447Z,64.90
2018-05-24T12:30:44.026Z,66.10
2018-05-24T12:33:15.516Z,67.10
2018-05-24T12:35:45.849Z,67.30
2018-05-24T12:38:16.731Z,68.00
2018-05-24T12:40:50.565Z,68.20
2018-05-24T12:43:21.788Z,67.90
2018-05-24T12:45:54.767Z,67.60
2018-05-24T12:48:25.353Z,67.60
2018-05-24T12:50:55.919Z,67.50
2018-05-24T12:53:27.352Z,66.90
2018-05-24T12:55:57.692Z,66.10
2018-05-24T12:58:28.720Z,65.50
2018-05-24T13:01:00.739Z,63.60
2018-05-24T13:03:31.244Z,61.70
2018-05-24T13:06:02.605Z,61.10
2018-05-24T13:08:33.461Z,60.90
2018-05-24T13:11:03.927Z,60.90
2018-05-24T13:13:34.992Z,61.60
2018-05-24T13:16:10.994Z,61.10
2018-05-24T13:18:41.515Z,60.60
2018-05-24T13:21:11.912Z,60.70
2018-05-24T13:23:43.663Z,59.60
2018-05-24T13:26:14.071Z,58.60
2018-05-24T13:28:44.885Z,56.60
2018-05-24T13:31:16.546Z,56.40
2018-05-24T13:33:50.487Z,56.70
2018-05-24T13:36:21.737Z,56.60
2018-05-24T13:41:35.803Z,57.00
2018-05-24T13:44:06.229Z,56.90
2018-05-24T13:46:38.968Z,57.60
2018-05-24T13:49:18.000Z,58.00
2018-05-24T13:51:54.733Z,57.30
2018-05-24T13:54:25.397Z,56.80
2018-05-24T13:56:57.707Z,54.10
2018-05-24T13:59:31.740Z,56.80
2018-05-24T14:02:03.300Z,55.60
2018-05-24T14:04:34.627Z,56.80
2018-05-24T14:07:05.121Z,56.40
2018-05-24T14:09:35.600Z,57.00
2018-05-24T14:12:06.082Z,58.20
2018-05-24T14:14:39.631Z,57.20
2018-05-24T14:17:10.040Z,57.10
2018-05-24T14:19:44.877Z,56.80
2018-05-24T14:22:15.268Z,56.70
2018-05-24T14:24:45.787Z,57.00
2018-05-24T14:29:54.533Z,55.70
2018-05-24T14:32:42.377Z,56.40
2018-05-24T14:35:16.120Z,56.80
2018-05-24T14:37:46.859Z,56.50
2018-05-24T14:40:22.957Z,56.90
2018-05-24T14:42:53.347Z,57.00
2018-05-24T14:45:24.216Z,57.50
2018-05-24T14:47:59.206Z,58.10
2018-05-24T14:50:44.183Z,57.60
2018-05-24T14:53:15.529Z,57.40
2018-05-24T14:55:47.063Z,57.20
2018-05-24T14:58:29.601Z,55.90
2018-05-24T15:01:19.782Z,56.40
2018-05-24T15:03:52.009Z,56.10
2018-05-24T15:06:23.757Z,56.80
2018-05-24T15:08:59.323Z,56.70
2018-05-24T15:11:31.137Z,56.50
2018-05-24T15:14:06.970Z,56.70
2018-05-24T15:16:39.105Z,57.60
2018-05-24T15:19:10.819Z,57.60
2018-05-24T15:21:56.908Z,58.00
2018-05-24T15:24:29.722Z,58.00
2018-05-24T15:27:01.541Z,57.70
2018-05-24T15:29:37.253Z,56.60
2018-05-24T15:32:08.415Z,56.30
2018-05-24T15:34:39.964Z,59.90
2018-05-24T15:37:11.601Z,60.10
2018-05-24T15:39:44.654Z,60.30
2018-05-24T15:42:16.379Z,61.10
2018-05-24T15:44:47.968Z,61.10
2018-05-24T15:47:19.452Z,60.80
2018-05-24T15:49:52.169Z,63.60
2018-05-24T15:52:24.642Z,60.70
2018-05-24T15:55:10.910Z,60.30
2018-05-24T15:57:42.830Z,60.20
2018-05-24T16:00:22.564Z,59.90
2018-05-24T16:03:03.945Z,59.40
2018-05-24T16:05:34.897Z,58.80
2018-05-24T16:08:08.095Z,59.10
2018-05-24T16:10:44.737Z,60.00
2018-05-24T16:13:24.644Z,58.60
2018-05-24T16:15:57.223Z,58.50
2018-05-24T16:18:32.202Z,58.50
2018-05-24T16:21:04.131Z,57.90
2018-05-24T16:23:35.525Z,57.20
2018-05-24T16:26:07.276Z,57.30
2018-05-24T16:28:38.073Z,57.70
2018-05-24T16:34:14.462Z,58.20
2018-05-24T16:36:46.662Z,58.10
2018-05-24T16:39:26.833Z,57.80
2018-05-24T16:42:15.586Z,54.40
2018-05-24T16:44:48.731Z,58.00
2018-05-24T16:47:21.398Z,58.00
2018-05-24T16:49:54.098Z,60.20
2018-05-24T16:52:26.713Z,58.50
2018-05-24T16:54:59.497Z,59.20
2018-05-24T16:57:33.270Z,59.80
2018-05-24T17:00:08.099Z,60.70
2018-05-24T17:02:39.536Z,61.40
2018-05-24T17:05:17.787Z,62.00
2018-05-24T17:07:50.867Z,62.30
2018-05-24T17:10:22.533Z,62.90
2018-05-24T17:13:06.401Z,63.50
2018-05-24T17:15:39.055Z,64.10
2018-05-24T17:18:10.887Z,64.60
2018-05-24T17:20:42.468Z,65.00
2018-05-24T17:23:39.110Z,65.50
2018-05-24T17:26:12.878Z,65.70
2018-05-24T17:28:43.827Z,65.90
2018-05-24T17:31:15.563Z,65.90
2018-05-24T17:33:49.725Z,66.00
2018-05-24T17:36:25.080Z,63.50
2018-05-24T17:38:57.964Z,66.30
2018-05-24T17:41:31.584Z,66.80
2018-05-24T17:44:04.305Z,67.10
2018-05-24T17:46:35.935Z,67.40
2018-05-24T17:51:49.581Z,68.40
2018-05-24T17:54:37.453Z,68.70
2018-05-24T17:57:16.586Z,69.00
2018-05-24T17:59:47.616Z,69.40
2018-05-24T18:02:19.636Z,69.70
2018-05-24T18:04:51.600Z,70.00
2018-05-24T18:07:24.451Z,70.00
2018-05-24T18:09:57.166Z,69.70
2018-05-24T18:12:31.749Z,66.00
2018-05-24T18:15:03.755Z,69.80
2018-05-24T18:17:35.504Z,69.70
2018-05-24T18:20:07.478Z,70.00
2018-05-24T18:22:38.619Z,69.90
2018-05-24T18:25:11.713Z,70.10
2018-05-24T18:27:51.151Z,70.30
2018-05-24T18:30:22.567Z,70.60
2018-05-24T18:32:56.432Z,71.20
2018-05-24T18:35:28.881Z,71.70
2018-05-24T18:38:01.123Z,72.00
2018-05-24T18:40:39.170Z,74.60
2018-05-24T18:43:15.830Z,72.80
2018-05-24T18:45:47.416Z,72.80
2018-05-24T18:48:27.421Z,73.30
2018-05-24T18:51:03.356Z,70.70
2018-05-24T18:53:36.060Z,73.70
2018-05-24T18:56:11.493Z,74.00
2018-05-24T18:58:46.818Z,74.00
2018-05-24T19:01:19.768Z,74.20
2018-05-24T19:03:52.949Z,74.50
2018-05-24T19:06:25.148Z,74.10
2018-05-24T19:08:57.561Z,74.50
2018-05-24T19:11:43.733Z,74.70
2018-05-24T19:14:16.820Z,74.80
2018-05-24T19:16:47.611Z,75.10
2018-05-24T19:19:20.928Z,75.20
2018-05-24T19:21:54.521Z,75.20
2018-05-24T19:24:32.569Z,75.50
2018-05-24T19:27:04.544Z,75.80
2018-05-24T19:29:36.862Z,75.60
2018-05-24T19:32:08.925Z,75.70
2018-05-24T19:34:41.078Z,75.80
2018-05-24T19:39:57.721Z,75.90
2018-05-24T19:42:31.559Z,76.00
2018-05-24T19:45:04.359Z,76.20
2018-05-24T19:47:35.911Z,76.40
2018-05-24T19:50:08.149Z,76.60
2018-05-24T19:52:41.721Z,76.70
2018-05-24T19:55:13.992Z,77.30
2018-05-24T19:57:45.609Z,77.50
2018-05-24T20:00:17.774Z,77.70
2018-05-24T20:02:49.533Z,77.60
2018-05-24T20:05:24.677Z,77.90
2018-05-24T20:07:56.547Z,77.70
2018-05-24T20:10:30.195Z,77.60
2018-05-24T20:13:03.230Z,77.50
2018-05-24T20:15:36.249Z,77.70
2018-05-24T20:18:07.364Z,78.10
2018-05-24T20:20:41.684Z,78.60
2018-05-24T20:23:14.484Z,79.00
2018-05-24T20:25:47.042Z,79.10
2018-05-24T20:28:18.720Z,79.40
2018-05-24T20:30:49.522Z,79.50
2018-05-24T20:33:21.506Z,79.90
2018-05-24T20:35:53.997Z,79.90
2018-05-24T20:38:32.588Z,79.90
2018-05-24T20:41:05.987Z,80.10
2018-05-24T20:43:41.055Z,80.60
2018-05-24T20:46:11.475Z,76.50
2018-05-24T20:48:46.229Z,80.70
2018-05-24T20:51:18.180Z,80.90
2018-05-24T20:53:53.369Z,81.20
2018-05-24T20:56:24.907Z,81.50
2018-05-24T21:01:40.975Z,81.80
2018-05-24T21:04:12.064Z,81.70
2018-05-24T21:06:44.462Z,82.20
2018-05-24T21:09:14.810Z,82.30
2018-05-24T21:11:47.398Z,82.50
2018-05-24T21:14:19.976Z,82.40
2018-05-24T21:16:51.311Z,82.70
2018-05-24T21:19:23.279Z,83.00
2018-05-24T21:21:54.933Z,83.10
2018-05-24T21:24:26.584Z,83.00
2018-05-24T21:27:00.396Z,83.00
2018-05-24T21:29:31.124Z,83.40
2018-05-24T21:32:05.553Z,83.40
2018-05-24T21:34:36.299Z,83.40
2018-05-24T21:37:07.175Z,83.80
2018-05-24T21:39:38.047Z,84.10
2018-05-24T21:42:09.476Z,84.30
2018-05-24T21:44:42.463Z,84.60
2018-05-24T21:47:12.824Z,84.90
2018-05-24T21:49:44.041Z,85.00
2018-05-24T21:52:15.825Z,83.60
2018-05-24T21:54:46.152Z,85.20
2018-05-24T21:57:16.599Z,85.30
2018-05-24T21:59:47.013Z,85.30
2018-05-24T22:02:17.550Z,85.50
2018-05-24T22:04:56.226Z,85.70
2018-05-24T22:07:26.948Z,85.90
2018-05-24T22:09:57.375Z,85.90
2018-05-24T22:12:27.762Z,86.10
2018-05-24T22:14:58.189Z,86.20
2018-05-24T22:17:28.699Z,86.40
2018-05-24T22:19:59.112Z,86.20
2018-05-24T22:22:29.867Z,86.50
2018-05-24T22:25:00.511Z,82.90
2018-05-24T22:27:31.613Z,86.80
2018-05-24T22:30:02.180Z,86.90
2018-05-24T22:32:33.486Z,87.00
2018-05-24T22:35:03.847Z,87.10
2018-05-24T22:37:33.779Z,87.20
2018-05-24T22:40:04.395Z,87.50
2018-05-24T22:42:35.338Z,87.60
2018-05-24T22:45:07.983Z,87.60
2018-05-24T22:47:39.217Z,87.80
2018-05-24T22:50:09.595Z,87.80
2018-05-24T22:52:40.244Z,88.00
2018-05-24T22:55:11.566Z,88.10
2018-05-24T22:57:41.887Z,88.10
2018-05-24T23:00:12.563Z,88.30
2018-05-24T23:02:42.993Z,88.60
2018-05-24T23:05:13.394Z,88.80
2018-05-24T23:07:43.821Z,88.70
2018-05-24T23:10:14.139Z,88.90
2018-05-24T23:12:44.463Z,88.90
2018-05-24T23:15:14.835Z,88.90
2018-05-24T23:17:46.232Z,88.90
2018-05-24T23:20:16.974Z,88.80
2018-05-24T23:22:47.501Z,88.90
2018-05-24T23:25:17.930Z,89.20
2018-05-24T23:27:48.256Z,89.30
2018-05-24T23:30:18.639Z,89.40
2018-05-24T23:32:49.036Z,89.40
2018-05-24T23:35:19.432Z,89.60
2018-05-24T23:37:49.773Z,89.60
2018-05-24T23:40:20.142Z,89.70
2018-05-24T23:42:50.519Z,85.90
2018-05-24T23:45:20.942Z,86.40
2018-05-24T23:47:51.375Z,90.00
2018-05-24T23:50:21.701Z,90.00
2018-05-24T23:52:52.019Z,90.10
2018-05-24T23:55:22.353Z,90.10
2018-05-24T23:57:52.726Z,90.20
